Weather Cam  Weather Cam


Weather Cam 2  Weather Cam 2


Thunder radar more information blitzortung!


Rain radar more information rain snow radar


Visit our other weather sites:

Template documentation
and downloads

And another site


You find our weather info also at:

WeatherCloud

Weather Underground

Northwest Weather Network

AWEKAS

Citizen Weather Observer Program (CWOP)



from: Apr 28 2018 5:00 pm until: Apr 26 2018 4:00 pm Hydrologic Outlook 
- Responsive action SHOULD be taken in the near future

Nearby METAR Reports

   
KCOE - Coeur d'Alene, ID
Updated: Apr 26 2018 2:56 pm
Clear  
Clear  
   Wind: Calm
Wind: Calm
Temperature: 75.2°F
Dew Point: 33.8°F
Humidity: 22%
Barometer: 30.08 inHg
Clouds: Clear
Visibility: 10 mi
Cloud details: Clear m
KCOE 262156Z AUTO 00000KT 10SM CLR 24/01 A3008 RMK AO2 SLP199 T02390011
KGEG - Spokane, WA
Updated: Apr 26 2018 2:53 pm
Few Clouds  
Few Clouds  
   Wind: Calm
Wind: Calm
Temperature: 73.4°F
Dew Point: 26.6°F
Humidity: 17%
Barometer: 30.09 inHg
Clouds: Few Clouds
Visibility: 10 mi
Cloud details: Few Clouds 7620 m
KGEG 262153Z 10SM FEW250 23/M03 A3009 RMK AO2 SLP182 T02331033
KSFF - Spokane Felts
Updated: Apr 26 2018 2:53 pm
Clear  
Clear  
   Wind: varies 3.5 mph
Wind: varies 3.5 mph
Temperature: 78.8°F
Dew Point: 33.8°F
Humidity: 20%
Barometer: 30.07 inHg
Clouds: Clear
Visibility: 10 mi
Cloud details: Clear m
KSFF 262153Z VRB03KT 10SM CLR 26/01 A3007 RMK AO2 SLP177 T02560011
KSKA - Fairchild AFB
Updated: Apr 26 2018 2:58 pm
Clear  
Clear  
   Wind: ENE 5.8 mph
Wind: ENE 5.8 mph
Temperature: 71.6°F
Dew Point: 32°F
Humidity: 23%
Barometer: 30.09 inHg
Clouds: Clear
Visibility: 10 mi
Cloud details: Clear m
KSKA 262158Z AUTO 06005KT 10SM CLR 22/00 A3009 RMK AO2 SLP188 T02210000 $
KSZT - Sandpoint, ID
Updated: Apr 26 2018 3:15 pm
Clear  
Clear  
   Wind: Calm
Wind: Calm
Temperature: 73.4°F
Dew Point: 26.6°F
Humidity: 17%
Barometer: 30.08 inHg
Clouds: Clear
Visibility: 10 mi
Cloud details: Clear m
KSZT 262215Z AUTO 00000KT 10SM CLR 23/M03 A3008 RMK AO2
KSEA - Sea-Tac, WA
Updated: Apr 26 2018 2:53 pm
Clear  
Clear  
   Wind: North 10.4 mph
Wind: North 10.4 mph
Temperature: 80.6°F
Dew Point: 46.4°F
Humidity: 30%
Barometer: 29.94 inHg
Clouds: Clear
Visibility: 10 mi
Cloud details: Clear m
KSEA 262153Z 35009KT 10SM CLR 27/08 A2994 RMK AO2 SLP144 T02720078

Script developed by  Saratoga-weather.org Adapted for the template by  Weerstation Leuven